Terminal Aerodrome Forecast
Issued by NWS

Home | Current Version | Previous Version | Text Only | Print | Product List | Glossary Off
Versions: 1 2 3 4 5 6 7 8 9 10 11 12 13 14

000
FTUS42 KMHX 161043 AAA
TAFOAJ
TAF AMD
KOAJ 161043Z 1611/1706 00000KT 3SM BR SKC
      TEMPO 1611/1612 2SM BR
     FM161300 29006KT P6SM SKC
      AMD LTD TO CLD VIS AND WIND=

USA.gov is the U.S. government's official web portal to all federal, state and local government web resources and services.